createdAt,value
2018-03-03T00:01:31.304Z,177.60
2018-03-03T00:03:58.916Z,171.15
2018-03-03T00:06:27.294Z,169.18
2018-03-03T00:08:55.635Z,175.98
2018-03-03T00:11:23.253Z,172.23
2018-03-03T00:13:50.847Z,173.40
2018-03-03T00:16:18.456Z,189.93
2018-03-03T00:18:46.811Z,179.95
2018-03-03T00:21:14.431Z,166.48
2018-03-03T00:23:42.019Z,186.50
2018-03-03T00:26:09.644Z,167.02
2018-03-03T00:28:37.230Z,177.38
2018-03-03T00:31:04.857Z,168.62
2018-03-03T00:33:32.468Z,174.77
2018-03-03T00:36:00.087Z,174.77
2018-03-03T00:38:27.681Z,181.45
2018-03-03T00:40:55.302Z,175.15
2018-03-03T00:43:23.692Z,183.57
2018-03-03T00:45:51.286Z,178.80
2018-03-03T00:48:18.916Z,179.85
2018-03-03T00:50:46.573Z,182.50
2018-03-03T00:53:14.176Z,182.60
2018-03-03T00:55:41.764Z,195.70
2018-03-03T00:58:10.156Z,184.00
2018-03-03T01:00:38.524Z,192.18
2018-03-03T01:03:06.137Z,202.75
2018-03-03T01:05:33.761Z,197.37
2018-03-03T01:08:02.116Z,173.15
2018-03-03T01:10:29.693Z,182.30
2018-03-03T01:12:58.090Z,208.13
2018-03-03T01:15:25.716Z,192.07
2018-03-03T01:17:53.333Z,194.25
2018-03-03T01:20:20.915Z,188.70
2018-03-03T01:22:48.559Z,188.62
2018-03-03T01:25:16.167Z,201.68
2018-03-03T01:27:43.742Z,190.85
2018-03-03T01:30:12.123Z,192.35
2018-03-03T01:32:40.487Z,193.62
2018-03-03T01:35:08.104Z,183.10
2018-03-03T01:37:35.685Z,184.27
2018-03-03T01:40:03.327Z,203.15
2018-03-03T01:42:30.908Z,179.02
2018-03-03T01:44:58.531Z,187.07
2018-03-03T01:47:26.107Z,191.02
2018-03-03T01:49:53.694Z,193.70
2018-03-03T01:52:21.324Z,190.35
2018-03-03T01:54:48.942Z,198.45
2018-03-03T01:57:16.532Z,184.63
2018-03-03T01:59:44.138Z,181.07
2018-03-03T02:02:11.768Z,188.18
2018-03-03T02:04:39.358Z,194.48
2018-03-03T02:07:07.002Z,190.38
2018-03-03T02:09:34.622Z,204.57
2018-03-03T02:12:10.282Z,201.90
2018-03-03T02:14:43.584Z,190.02
2018-03-03T02:17:12.807Z,188.32
2018-03-03T02:19:43.306Z,193.65
2018-03-03T02:22:13.605Z,194.20
2018-03-03T02:24:42.661Z,192.25
2018-03-03T02:27:11.940Z,192.95
2018-03-03T02:29:43.437Z,215.37
2018-03-03T02:32:14.971Z,181.90
2018-03-03T02:34:45.787Z,217.25
2018-03-03T02:37:15.537Z,197.35
2018-03-03T02:39:45.872Z,200.95
2018-03-03T02:42:16.262Z,198.40
2018-03-03T02:44:49.456Z,194.90
2018-03-03T02:47:23.785Z,204.20
2018-03-03T02:49:53.709Z,195.02
2018-03-03T02:52:24.633Z,197.23
2018-03-03T02:54:54.540Z,204.15
2018-03-03T02:57:24.225Z,195.40
2018-03-03T02:59:54.879Z,205.23
2018-03-03T03:02:27.225Z,200.60
2018-03-03T03:04:57.746Z,213.93
2018-03-03T03:07:28.376Z,191.40
2018-03-03T03:09:58.969Z,206.50
2018-03-03T03:12:28.603Z,195.87
2018-03-03T03:14:58.237Z,201.12
2018-03-03T03:17:29.000Z,189.98
2018-03-03T03:19:59.502Z,203.50
2018-03-03T03:22:30.155Z,195.80
2018-03-03T03:24:59.994Z,183.70
2018-03-03T03:27:30.650Z,194.55
2018-03-03T03:30:00.440Z,225.02
2018-03-03T03:32:30.102Z,220.07
2018-03-03T03:35:01.722Z,219.43
2018-03-03T03:37:31.452Z,203.93
2018-03-03T03:40:01.021Z,211.82
2018-03-03T03:42:30.897Z,209.95
2018-03-03T03:45:02.061Z,220.88
2018-03-03T03:47:31.689Z,177.43
2018-03-03T03:50:05.734Z,214.57
2018-03-03T03:52:36.415Z,210.38
2018-03-03T03:55:06.979Z,205.43
2018-03-03T03:57:36.539Z,205.87
2018-03-03T04:00:04.262Z,205.82
2018-03-03T04:02:31.804Z,222.25
2018-03-03T04:04:59.385Z,202.27
2018-03-03T04:07:27.010Z,201.07
2018-03-03T04:09:54.604Z,211.95
2018-03-03T04:12:22.254Z,203.18
2018-03-03T04:14:49.834Z,207.48
2018-03-03T04:17:17.410Z,203.48
2018-03-03T04:19:45.819Z,218.30
2018-03-03T04:22:13.413Z,224.10
2018-03-03T04:24:40.990Z,234.73
2018-03-03T04:27:08.615Z,214.70
2018-03-03T04:29:36.244Z,208.15
2018-03-03T04:32:04.633Z,208.90
2018-03-03T04:34:32.985Z,215.60
2018-03-03T04:37:00.618Z,219.70
2018-03-03T04:39:28.207Z,218.07
2018-03-03T04:41:55.838Z,210.52
2018-03-03T04:44:23.434Z,216.12
2018-03-03T04:46:51.066Z,222.55
2018-03-03T04:49:18.643Z,207.40
2018-03-03T04:51:46.282Z,200.60
2018-03-03T04:54:13.897Z,220.30
2018-03-03T04:56:42.274Z,214.55
2018-03-03T04:59:16.427Z,218.63
2018-03-03T05:01:47.276Z,208.80
2018-03-03T05:04:14.923Z,205.23
2018-03-03T05:06:57.422Z,203.23
2018-03-03T05:09:25.014Z,218.43
2018-03-03T05:11:52.603Z,219.05
2018-03-03T05:14:21.128Z,209.95
2018-03-03T05:16:54.429Z,216.35
2018-03-03T05:19:36.963Z,225.07
2018-03-03T05:22:10.084Z,209.65
2018-03-03T05:24:43.401Z,224.23
2018-03-03T05:27:29.454Z,214.93
2018-03-03T05:30:02.608Z,223.27
2018-03-03T05:32:35.856Z,217.15
2018-03-03T05:35:04.214Z,214.93
2018-03-03T05:37:37.574Z,241.65
2018-03-03T05:40:10.716Z,234.77
2018-03-03T05:42:42.122Z,218.32
2018-03-03T05:45:30.645Z,215.65
2018-03-03T05:48:04.550Z,228.10
2018-03-03T05:50:38.485Z,226.05
2018-03-03T05:53:21.917Z,244.90
2018-03-03T05:55:55.172Z,240.35
2018-03-03T05:58:28.459Z,216.52
2018-03-03T06:01:01.695Z,232.07
2018-03-03T06:03:47.043Z,230.25
2018-03-03T06:06:29.514Z,234.02
2018-03-03T06:09:07.083Z,252.70
2018-03-03T06:11:34.674Z,253.77
2018-03-03T06:14:02.330Z,230.57
2018-03-03T06:16:29.908Z,225.48
2018-03-03T06:18:57.527Z,248.50
2018-03-03T06:21:25.104Z,233.30
2018-03-03T06:23:52.713Z,211.15
2018-03-03T06:26:21.084Z,248.85
2018-03-03T06:28:48.700Z,217.65
2018-03-03T06:31:16.283Z,248.05
2018-03-03T06:33:43.902Z,213.07
2018-03-03T06:36:11.498Z,204.93
2018-03-03T06:38:39.108Z,219.65
2018-03-03T06:41:06.687Z,233.70
2018-03-03T06:43:34.311Z,224.45
2018-03-03T06:46:01.931Z,233.50
2018-03-03T06:48:29.526Z,225.90
2018-03-03T06:50:57.162Z,217.05
2018-03-03T06:53:24.772Z,233.98
2018-03-03T06:55:53.174Z,218.25
2018-03-03T06:58:20.789Z,238.10
2018-03-03T07:00:48.392Z,243.25
2018-03-03T07:03:16.777Z,234.43
2018-03-03T07:05:44.362Z,215.00
2018-03-03T07:08:12.005Z,215.07
2018-03-03T07:10:39.640Z,226.18
2018-03-03T07:13:08.006Z,212.27
2018-03-03T07:15:35.602Z,203.73
2018-03-03T07:18:03.284Z,226.15
2018-03-03T07:20:30.882Z,209.60
2018-03-03T07:22:58.498Z,216.25
2018-03-03T07:25:26.077Z,217.68
2018-03-03T07:27:53.719Z,206.82
2018-03-03T07:30:21.322Z,235.35
2018-03-03T07:32:48.966Z,217.77
2018-03-03T07:35:16.751Z,214.25
2018-03-03T07:37:44.380Z,214.40
2018-03-03T07:40:11.963Z,225.45
2018-03-03T07:42:39.567Z,219.70
2018-03-03T07:45:07.183Z,215.73
2018-03-03T07:47:34.787Z,221.85
2018-03-03T07:50:04.675Z,209.85
2018-03-03T07:52:32.324Z,226.73
2018-03-03T07:54:59.904Z,215.77
2018-03-03T07:57:27.528Z,217.55
2018-03-03T07:59:55.140Z,222.15
2018-03-03T08:02:22.711Z,210.55
2018-03-03T08:04:51.106Z,202.93
2018-03-03T08:07:18.700Z,211.55
2018-03-03T08:09:46.320Z,213.35
2018-03-03T08:12:14.669Z,196.75
2018-03-03T08:14:42.283Z,221.68
2018-03-03T08:17:09.865Z,177.43
2018-03-03T08:19:37.494Z,227.35
2018-03-03T08:22:05.079Z,203.30
2018-03-03T08:24:32.720Z,190.93
2018-03-03T08:27:00.342Z,183.65
2018-03-03T08:29:27.924Z,197.40
2018-03-03T08:31:55.564Z,197.27
2018-03-03T08:34:23.210Z,187.88
2018-03-03T08:36:50.787Z,179.05
2018-03-03T08:39:18.416Z,188.40
2018-03-03T08:41:46.051Z,174.93
2018-03-03T08:44:13.671Z,182.27
2018-03-03T08:46:41.254Z,168.65
2018-03-03T08:49:09.646Z,168.85
2018-03-03T08:51:37.288Z,165.00
2018-03-03T08:54:04.901Z,157.00
2018-03-03T08:56:32.526Z,155.65
2018-03-03T08:59:00.887Z,160.85
2018-03-03T09:01:28.485Z,155.57
2018-03-03T09:03:56.129Z,154.90
2018-03-03T09:06:24.511Z,142.65
2018-03-03T09:08:52.086Z,148.75
2018-03-03T09:11:19.725Z,152.02
2018-03-03T09:13:48.079Z,156.20
2018-03-03T09:16:15.683Z,166.93
2018-03-03T09:18:43.304Z,177.30
2018-03-03T09:21:10.891Z,156.95
2018-03-03T09:23:39.296Z,170.30
2018-03-03T09:26:06.915Z,176.20
2018-03-03T09:28:34.590Z,169.73
2018-03-03T09:31:02.239Z,187.20
2018-03-03T09:33:29.842Z,154.35
2018-03-03T09:35:57.455Z,159.55
2018-03-03T09:38:25.073Z,160.37
2018-03-03T09:40:52.691Z,162.73
2018-03-03T09:43:21.079Z,157.18
2018-03-03T09:45:48.760Z,161.82
2018-03-03T09:48:16.383Z,156.40
2018-03-03T09:50:44.018Z,147.98
2018-03-03T09:53:11.636Z,148.73
2018-03-03T09:55:39.278Z,154.25
2018-03-03T09:58:07.703Z,145.20
2018-03-03T10:00:35.314Z,133.82
2018-03-03T10:03:02.944Z,139.18
2018-03-03T10:05:30.602Z,146.35
2018-03-03T10:07:58.190Z,149.15
2018-03-03T10:10:25.826Z,150.27
2018-03-03T10:12:53.479Z,148.43
2018-03-03T10:15:21.129Z,143.77
2018-03-03T10:17:48.731Z,150.05
2018-03-03T10:20:16.363Z,159.23
2018-03-03T10:22:43.958Z,140.73
2018-03-03T10:25:11.600Z,157.37
2018-03-03T10:27:39.211Z,146.02
2018-03-03T10:30:07.638Z,144.07
2018-03-03T10:32:36.030Z,146.07
2018-03-03T10:35:03.629Z,134.18
2018-03-03T10:37:32.022Z,144.05
2018-03-03T10:40:00.421Z,136.00
2018-03-03T10:42:28.036Z,140.12
2018-03-03T10:44:55.672Z,133.95
2018-03-03T10:47:23.296Z,140.57
2018-03-03T10:49:50.942Z,122.53
2018-03-03T10:52:19.288Z,148.82
2018-03-03T10:54:46.922Z,132.05
2018-03-03T10:57:14.578Z,130.82
2018-03-03T10:59:42.358Z,139.40
2018-03-03T11:02:10.032Z,129.00
2018-03-03T11:04:37.731Z,134.37
2018-03-03T11:07:06.108Z,133.48
2018-03-03T11:09:34.540Z,129.07
2018-03-03T11:12:02.177Z,123.35
2018-03-03T11:14:29.841Z,122.05
2018-03-03T11:16:57.543Z,127.87
2018-03-03T11:19:25.151Z,124.30
2018-03-03T11:21:52.841Z,109.45
2018-03-03T11:24:20.450Z,102.00
2018-03-03T11:26:48.034Z,106.93
2018-03-03T11:29:16.435Z,120.87
2018-03-03T11:31:44.089Z,133.45
2018-03-03T11:34:11.761Z,115.43
2018-03-03T11:36:39.373Z,121.55
2018-03-03T11:39:07.019Z,109.10
2018-03-03T11:41:34.692Z,111.97
2018-03-03T11:44:02.343Z,105.15
2018-03-03T11:46:29.972Z,103.45
2018-03-03T11:48:57.611Z,103.75
2018-03-03T11:51:25.217Z,93.43
2018-03-03T11:53:52.860Z,92.43
2018-03-03T11:56:20.479Z,95.53
2018-03-03T11:58:48.863Z,99.43
2018-03-03T12:01:17.279Z,89.65
2018-03-03T12:03:44.864Z,91.40
2018-03-03T12:06:12.503Z,82.07
2018-03-03T12:08:40.305Z,78.13
2018-03-03T12:11:07.933Z,79.27
2018-03-03T12:13:35.547Z,85.43
2018-03-03T12:16:03.200Z,77.50
2018-03-03T12:18:30.887Z,79.57
2018-03-03T12:20:59.281Z,76.17
2018-03-03T12:23:26.973Z,78.03
2018-03-03T12:25:55.329Z,78.77
2018-03-03T12:28:23.024Z,89.83
2018-03-03T12:30:50.828Z,76.10
2018-03-03T12:33:18.466Z,85.93
2018-03-03T12:35:46.125Z,79.97
2018-03-03T12:38:13.767Z,89.53
2018-03-03T12:40:41.425Z,76.90
2018-03-03T12:43:09.130Z,79.93
2018-03-03T12:45:36.808Z,91.03
2018-03-03T12:48:05.232Z,75.27
2018-03-03T12:50:32.822Z,88.47
2018-03-03T12:53:00.447Z,84.50
2018-03-03T12:55:28.060Z,88.27
2018-03-03T12:57:56.966Z,88.13
2018-03-03T13:00:24.561Z,78.93
2018-03-03T13:02:52.364Z,88.23
2018-03-03T13:05:20.056Z,79.80
2018-03-03T13:07:47.768Z,83.53
2018-03-03T13:10:15.459Z,83.47
2018-03-03T13:12:43.079Z,92.97
2018-03-03T13:15:10.730Z,88.50
2018-03-03T13:17:38.382Z,88.93
2018-03-03T13:20:06.831Z,90.00
2018-03-03T13:22:34.478Z,92.70
2018-03-03T13:25:02.088Z,95.87
2018-03-03T13:27:29.765Z,87.43
2018-03-03T13:29:57.382Z,89.23
2018-03-03T13:32:25.021Z,91.57
2018-03-03T13:34:52.619Z,89.05
2018-03-03T13:37:21.041Z,100.47
2018-03-03T13:39:48.670Z,75.87
2018-03-03T13:42:17.098Z,93.25
2018-03-03T13:44:44.719Z,93.05
2018-03-03T13:47:13.127Z,93.25
2018-03-03T13:49:40.750Z,95.65
2018-03-03T13:52:09.273Z,95.12
2018-03-03T13:54:36.906Z,91.28
2018-03-03T13:57:05.286Z,92.72
2018-03-03T13:59:32.930Z,88.68
2018-03-03T14:02:00.612Z,94.43
2018-03-03T14:04:28.396Z,87.43
2018-03-03T14:06:56.069Z,88.57
2018-03-03T14:09:23.727Z,94.95
2018-03-03T14:11:51.366Z,87.55
2018-03-03T14:14:19.783Z,86.20
2018-03-03T14:16:47.386Z,89.18
2018-03-03T14:19:15.043Z,92.47
2018-03-03T14:21:42.676Z,91.07
2018-03-03T14:24:10.333Z,95.12
2018-03-03T14:26:37.941Z,88.87
2018-03-03T14:29:06.318Z,101.25
2018-03-03T14:31:33.974Z,86.35
2018-03-03T14:34:01.581Z,86.30
2018-03-03T14:36:29.170Z,90.10
2018-03-03T14:38:56.803Z,90.53
2018-03-03T14:41:25.189Z,97.53
2018-03-03T14:43:53.358Z,100.03
2018-03-03T14:46:20.944Z,94.07
2018-03-03T14:48:48.520Z,91.93
2018-03-03T14:51:16.138Z,89.03
2018-03-03T14:53:43.757Z,100.10
2018-03-03T14:56:11.391Z,92.60
2018-03-03T14:58:39.038Z,91.07
2018-03-03T15:01:06.607Z,98.95
2018-03-03T15:03:34.195Z,97.07
2018-03-03T15:06:01.825Z,93.50
2018-03-03T15:08:29.451Z,96.30
2018-03-03T15:10:57.809Z,98.20
2018-03-03T15:13:25.493Z,99.15
2018-03-03T15:15:53.948Z,95.03
2018-03-03T15:18:21.506Z,105.45
2018-03-03T15:20:49.146Z,94.03
2018-03-03T15:23:16.758Z,94.72
2018-03-03T15:25:44.388Z,101.25
2018-03-03T15:28:11.996Z,105.03
2018-03-03T15:30:39.639Z,104.38
2018-03-03T15:33:07.247Z,99.55
2018-03-03T15:35:34.846Z,105.90
2018-03-03T15:38:03.272Z,110.47
2018-03-03T15:40:30.858Z,90.10
2018-03-03T15:42:58.551Z,107.68
2018-03-03T15:45:26.142Z,107.22
2018-03-03T15:47:53.769Z,109.18
2018-03-03T15:50:21.346Z,95.75
2018-03-03T15:52:49.747Z,87.20
2018-03-03T15:55:17.371Z,96.15
2018-03-03T15:57:44.994Z,107.60
2018-03-03T16:00:12.628Z,111.37
2018-03-03T16:02:40.222Z,100.57
2018-03-03T16:05:07.863Z,110.85
2018-03-03T16:07:35.446Z,92.55
2018-03-03T16:10:03.057Z,104.55
2018-03-03T16:12:31.410Z,93.15
2018-03-03T16:14:59.050Z,95.53
2018-03-03T16:17:26.647Z,87.75
2018-03-03T16:19:55.044Z,99.55
2018-03-03T16:22:23.395Z,100.55
2018-03-03T16:24:51.039Z,98.47
2018-03-03T16:27:18.667Z,91.72
2018-03-03T16:29:46.273Z,93.12
2018-03-03T16:32:13.886Z,95.57
2018-03-03T16:34:41.468Z,107.45
2018-03-03T16:37:09.076Z,105.32
2018-03-03T16:39:36.710Z,111.35
2018-03-03T16:42:04.318Z,104.65
2018-03-03T16:44:32.663Z,93.57
2018-03-03T16:47:00.282Z,104.53
2018-03-03T16:49:27.913Z,104.57
2018-03-03T16:51:56.315Z,109.75
2018-03-03T16:54:23.901Z,107.22
2018-03-03T16:56:51.527Z,93.05
2018-03-03T16:59:19.859Z,108.68
2018-03-03T17:01:47.508Z,93.43
2018-03-03T17:04:15.097Z,97.55
2018-03-03T17:06:42.711Z,108.85
2018-03-03T17:09:11.101Z,107.90
2018-03-03T17:11:38.690Z,103.00
2018-03-03T17:14:06.487Z,112.12
2018-03-03T17:16:34.119Z,105.10
2018-03-03T17:19:01.744Z,108.50
2018-03-03T17:21:29.318Z,123.97
2018-03-03T17:23:56.943Z,120.80
2018-03-03T17:26:25.293Z,119.70
2018-03-03T17:28:52.919Z,132.70
2018-03-03T17:31:20.571Z,122.72
2018-03-03T17:33:48.190Z,139.52
2018-03-03T17:36:16.608Z,136.12
2018-03-03T17:38:44.230Z,140.88
2018-03-03T17:41:11.856Z,146.15
2018-03-03T17:43:39.430Z,148.40
2018-03-03T17:46:07.020Z,128.25
2018-03-03T17:48:34.644Z,135.07
2018-03-03T17:51:02.304Z,128.95
2018-03-03T17:53:29.893Z,144.07
2018-03-03T17:55:57.471Z,148.05
2018-03-03T17:58:25.869Z,146.07
2018-03-03T18:00:53.482Z,149.45
2018-03-03T18:03:21.122Z,154.68
2018-03-03T18:05:48.739Z,152.65
2018-03-03T18:08:17.117Z,140.93
2018-03-03T18:10:45.507Z,170.55
2018-03-03T18:13:17.926Z,166.15
2018-03-03T18:15:45.520Z,142.80
2018-03-03T18:18:13.962Z,151.05
2018-03-03T18:20:41.561Z,142.60
2018-03-03T18:23:09.959Z,157.70
2018-03-03T18:25:38.306Z,142.10
2018-03-03T18:28:05.951Z,147.60
2018-03-03T18:30:33.546Z,147.30
2018-03-03T18:33:01.934Z,162.32
2018-03-03T18:35:30.277Z,152.68
2018-03-03T18:37:57.907Z,163.43
2018-03-03T18:40:25.505Z,170.65
2018-03-03T18:42:53.090Z,162.35
2018-03-03T18:45:20.723Z,182.43
2018-03-03T18:47:48.353Z,145.87
2018-03-03T18:50:15.980Z,176.18
2018-03-03T18:52:44.391Z,165.20
2018-03-03T18:55:12.006Z,173.82
2018-03-03T18:57:39.624Z,171.80
2018-03-03T19:00:07.216Z,162.10
2018-03-03T19:02:34.860Z,178.50
2018-03-03T19:05:02.448Z,162.57
2018-03-03T19:07:30.038Z,154.98
2018-03-03T19:09:58.428Z,154.05
2018-03-03T19:12:26.020Z,160.88
2018-03-03T19:14:53.638Z,165.18
2018-03-03T19:17:21.211Z,162.52
2018-03-03T19:19:48.848Z,164.10
2018-03-03T19:22:16.464Z,175.73
2018-03-03T19:24:44.100Z,182.70
2018-03-03T19:27:11.683Z,166.40
2018-03-03T19:29:39.300Z,174.73
2018-03-03T19:32:07.690Z,170.65
2018-03-03T19:34:35.323Z,169.37
2018-03-03T19:37:02.900Z,182.30
2018-03-03T19:39:30.541Z,177.62
2018-03-03T19:41:58.960Z,196.35
2018-03-03T19:44:26.559Z,161.00
2018-03-03T19:46:54.128Z,169.75
2018-03-03T19:49:21.749Z,163.95
2018-03-03T19:51:49.334Z,174.55
2018-03-03T19:54:16.946Z,168.87
2018-03-03T19:56:45.343Z,171.18
2018-03-03T19:59:12.996Z,170.25
2018-03-03T20:01:40.599Z,174.85
2018-03-03T20:04:08.208Z,176.73
2018-03-03T20:06:35.824Z,157.05
2018-03-03T20:09:03.448Z,179.70
2018-03-03T20:11:31.059Z,177.85
2018-03-03T20:13:58.676Z,184.10
2018-03-03T20:16:26.254Z,177.07
2018-03-03T20:18:53.951Z,171.70
2018-03-03T20:21:21.528Z,162.37
2018-03-03T20:23:49.154Z,176.80
2018-03-03T20:26:16.723Z,185.98
2018-03-03T20:28:44.343Z,177.80
2018-03-03T20:31:11.968Z,170.98
2018-03-03T20:33:39.579Z,175.90
2018-03-03T20:36:07.168Z,167.05
2018-03-03T20:38:34.797Z,168.27
2018-03-03T20:41:02.368Z,181.60
2018-03-03T20:43:30.010Z,167.70
2018-03-03T20:45:58.370Z,166.80
2018-03-03T20:48:26.787Z,177.60
2018-03-03T20:50:55.170Z,181.00
2018-03-03T20:53:22.776Z,183.95
2018-03-03T20:55:50.422Z,197.15
2018-03-03T20:58:18.007Z,183.57
2018-03-03T21:00:46.423Z,184.57
2018-03-03T21:03:16.971Z,194.75
2018-03-03T21:05:44.612Z,184.23
2018-03-03T21:08:12.241Z,201.43
2018-03-03T21:10:39.826Z,186.73
2018-03-03T21:13:08.183Z,190.93
2018-03-03T21:15:35.794Z,179.80
2018-03-03T21:18:03.389Z,181.35
2018-03-03T21:20:31.030Z,199.82
2018-03-03T21:22:58.612Z,206.68
2018-03-03T21:25:26.196Z,200.05
2018-03-03T21:27:53.834Z,193.57
2018-03-03T21:30:21.451Z,187.88
2018-03-03T21:32:49.078Z,189.80
2018-03-03T21:35:17.524Z,176.55
2018-03-03T21:37:45.130Z,174.32
2018-03-03T21:40:13.507Z,182.68
2018-03-03T21:42:41.901Z,196.60
2018-03-03T21:45:09.486Z,176.85
2018-03-03T21:47:37.093Z,189.37
2018-03-03T21:50:04.729Z,188.05
2018-03-03T21:52:32.360Z,181.32
2018-03-03T21:54:59.980Z,172.62
2018-03-03T21:57:27.619Z,177.15
2018-03-03T21:59:55.204Z,188.27
2018-03-03T22:02:22.782Z,197.05
2018-03-03T22:04:51.257Z,189.87
2018-03-03T22:07:18.848Z,191.48
2018-03-03T22:09:46.440Z,190.73
2018-03-03T22:12:14.059Z,178.45
2018-03-03T22:14:41.642Z,177.12
2018-03-03T22:17:09.239Z,185.63
2018-03-03T22:19:36.850Z,171.62
2018-03-03T22:22:04.811Z,180.45
2018-03-03T22:24:32.454Z,184.05
2018-03-03T22:27:00.830Z,178.45
2018-03-03T22:29:28.485Z,186.55
2018-03-03T22:31:56.059Z,204.65
2018-03-03T22:34:24.420Z,190.93
2018-03-03T22:36:52.048Z,182.10
2018-03-03T22:39:24.526Z,192.82
2018-03-03T22:41:52.106Z,185.30
2018-03-03T22:44:19.709Z,201.60
2018-03-03T22:46:47.285Z,172.45
2018-03-03T22:49:14.918Z,177.70
2018-03-03T22:51:45.959Z,175.82
2018-03-03T22:54:14.363Z,180.00
2018-03-03T22:56:41.951Z,181.15
2018-03-03T22:59:09.566Z,183.62
2018-03-03T23:01:37.921Z,180.85
2018-03-03T23:04:05.543Z,178.10
2018-03-03T23:06:33.174Z,178.77
2018-03-03T23:09:01.522Z,184.45
2018-03-03T23:11:29.143Z,184.63
2018-03-03T23:13:56.781Z,187.77
2018-03-03T23:16:25.133Z,194.45
2018-03-03T23:18:52.756Z,197.90
2018-03-03T23:21:20.357Z,196.52
2018-03-03T23:23:47.971Z,187.12
2018-03-03T23:26:15.575Z,183.82
2018-03-03T23:28:43.190Z,184.93
2018-03-03T23:31:11.532Z,178.73
2018-03-03T23:33:39.910Z,190.35
2018-03-03T23:36:07.492Z,185.30
2018-03-03T23:38:35.866Z,192.62
2018-03-03T23:41:04.280Z,193.73
2018-03-03T23:43:31.902Z,202.07
2018-03-03T23:46:00.247Z,186.77
2018-03-03T23:48:27.827Z,179.48
2018-03-03T23:50:56.234Z,199.48
2018-03-03T23:53:23.863Z,191.20
2018-03-03T23:55:51.482Z,197.02
2018-03-03T23:58:19.058Z,194.60
